Ashville, New York
Current Conditions -  °F | °C
As of 9:55 AM on Tuesday 21 Oct 2014 (Local Time) from KJHW Reporting Station
Overcast Overcast  
Wind Chill: 46°   Ceiling: 1000
Heat Index: 48°   Visibility: 5mi
Dew Point: 45°   Wind: 6mph
Humidity: 87%   Direction: 300°WNW
Pressure: 29.85"   Gusts: NA
Location:  42.1°N, 79.38°W
Report Text: KJHW 211355Z AUTO 30005KT 5SM SCT006 BKN010 OVC015 09/07 A2985 RMK AO1
Loading
Personal Weather Stations






























Interactive Weather Map
Tropical Storm Tracking
New forecast layout! Learn more

10-Day Weather Forecast

Advertisements
Track Severe Weather on mobile